Terminal Aerodrome Forecast
Issued by NWS Chicago, IL

Home | Current Version | Previous Version | Graphics & Text | Print | Product List | Glossary On
Versions: 1 2 3 4 5 6 7 8 9 10 11 12 13 14 15 16 17 18 19 20 21 22 23 24 25 26 27 28 29 30 31 32 33 34 35 36 37
000
FTUS43 KLOT 191400 AAA
TAFRFD
TAF AMD
KRFD 191412Z 1914/2012 32003KT P6SM OVC013
     FM191600 00000KT P6SM OVC020
     FM191800 VRB02KT P6SM BKN025
     FM200100 17002KT P6SM OVC020=

USA.gov is the U.S. government's official web portal to all federal, state and local government web resources and services.